createdAt,value
2019-03-01T00:02:18.993Z,59.54
2019-03-01T00:07:59.164Z,60.56
2019-03-01T00:13:23.955Z,60.49
2019-03-01T00:18:50.384Z,58.90
2019-03-01T00:24:13.822Z,59.03
2019-03-01T00:29:49.713Z,59.11
2019-03-01T00:34:56.476Z,59.06
2019-03-01T00:40:18.232Z,59.30
2019-03-01T00:45:21.794Z,59.64
2019-03-01T00:50:25.455Z,59.66
2019-03-01T00:55:29.045Z,60.01
2019-03-01T01:00:38.721Z,60.15
2019-03-01T01:05:42.382Z,61.26
2019-03-01T01:10:46.043Z,60.84
2019-03-01T01:15:49.682Z,61.34
2019-03-01T01:20:53.323Z,61.91
2019-03-01T01:25:56.903Z,61.93
2019-03-01T01:31:00.559Z,61.52
2019-03-01T01:36:04.823Z,61.78
2019-03-01T01:41:08.504Z,61.44
2019-03-01T01:46:12.094Z,62.06
2019-03-01T01:51:16.372Z,62.42
2019-03-01T01:56:19.943Z,62.71
2019-03-01T02:01:23.573Z,62.75
2019-03-01T02:06:27.512Z,61.74
2019-03-01T02:11:31.101Z,62.61
2019-03-01T02:16:34.775Z,62.67
2019-03-01T02:21:38.363Z,62.13
2019-03-01T02:26:41.985Z,62.12
2019-03-01T02:31:48.945Z,62.33
2019-03-01T02:36:52.624Z,61.83
2019-03-01T02:41:56.156Z,61.54
2019-03-01T02:46:59.844Z,60.48
2019-03-01T02:52:03.606Z,61.68
2019-03-01T02:57:07.269Z,60.58
2019-03-01T03:02:10.854Z,61.17
2019-03-01T03:07:31.423Z,62.02
2019-03-01T03:12:35.113Z,60.55
2019-03-01T03:17:38.718Z,60.21
2019-03-01T03:22:42.334Z,59.83
2019-03-01T03:27:45.904Z,60.93
2019-03-01T03:32:49.602Z,60.22
2019-03-01T03:37:53.131Z,60.28
2019-03-01T03:42:56.793Z,61.16
2019-03-01T03:48:00.393Z,59.70
2019-03-01T03:53:04.130Z,60.03
2019-03-01T03:58:08.014Z,60.71
2019-03-01T04:03:11.789Z,61.32
2019-03-01T04:08:15.523Z,61.46
2019-03-01T04:13:19.335Z,60.08
2019-03-01T04:18:23.020Z,60.23
2019-03-01T04:23:26.969Z,59.72
2019-03-01T04:28:30.825Z,60.11
2019-03-01T04:33:34.591Z,60.06
2019-03-01T04:38:38.251Z,59.02
2019-03-01T04:43:42.217Z,60.27
2019-03-01T04:48:48.474Z,60.72
2019-03-01T04:53:52.251Z,58.48
2019-03-01T04:58:56.028Z,58.99
2019-03-01T05:03:59.764Z,58.72
2019-03-01T05:09:05.190Z,58.03
2019-03-01T05:14:09.000Z,58.03
2019-03-01T05:19:12.818Z,57.55
2019-03-01T05:24:17.190Z,58.04
2019-03-01T05:29:20.928Z,57.14
2019-03-01T05:34:24.726Z,57.12
2019-03-01T05:39:28.610Z,57.07
2019-03-01T05:44:32.698Z,57.40
2019-03-01T05:49:36.506Z,57.86
2019-03-01T05:54:40.221Z,56.72
2019-03-01T05:59:43.989Z,58.57
2019-03-01T06:04:54.124Z,58.05
2019-03-01T06:10:16.020Z,57.93
2019-03-01T06:15:22.835Z,58.94
2019-03-01T06:20:44.719Z,57.48
2019-03-01T06:25:57.530Z,57.43
2019-03-01T06:31:10.637Z,57.96
2019-03-01T06:36:34.026Z,57.83
2019-03-01T06:42:05.511Z,56.19
2019-03-01T06:47:31.332Z,55.98
2019-03-01T06:52:35.106Z,56.19
2019-03-01T06:57:38.981Z,56.42
2019-03-01T07:02:47.368Z,55.70
2019-03-01T07:07:51.104Z,55.79
2019-03-01T07:12:54.896Z,56.76
2019-03-01T07:17:58.723Z,55.88
2019-03-01T07:23:02.435Z,55.68
2019-03-01T07:28:06.197Z,56.04
2019-03-01T07:33:09.851Z,56.44
2019-03-01T07:38:13.634Z,56.44
2019-03-01T07:43:17.466Z,57.77
2019-03-01T07:48:21.210Z,57.38
2019-03-01T07:53:24.976Z,56.75
2019-03-01T07:58:28.647Z,56.09
2019-03-01T08:03:32.460Z,56.11
2019-03-01T08:08:38.823Z,56.02
2019-03-01T08:13:41.602Z,56.02
2019-03-01T08:18:45.324Z,56.57
2019-03-01T08:23:50.560Z,56.87
2019-03-01T08:28:58.309Z,55.81
2019-03-01T08:34:00.272Z,55.30
2019-03-01T08:39:05.880Z,56.27
2019-03-01T08:44:10.677Z,56.32
2019-03-01T08:49:14.623Z,57.54
2019-03-01T08:54:18.596Z,56.58
2019-03-01T08:59:22.444Z,57.62
2019-03-01T09:04:26.084Z,57.56
2019-03-01T09:09:29.840Z,57.77
2019-03-01T09:14:33.527Z,58.20
2019-03-01T09:19:37.365Z,58.19
2019-03-01T09:24:41.043Z,58.50
2019-03-01T09:29:44.811Z,61.00
2019-03-01T09:34:51.110Z,62.86
2019-03-01T09:39:54.942Z,63.54
2019-03-01T09:44:58.614Z,61.28
2019-03-01T09:50:02.438Z,60.40
2019-03-01T09:55:08.640Z,59.32
2019-03-01T10:00:18.680Z,59.00
2019-03-01T10:05:22.547Z,59.67
2019-03-01T10:10:28.933Z,60.05
2019-03-01T10:15:33.147Z,48.28
2019-03-01T10:20:37.172Z,39.34
2019-03-01T10:25:41.328Z,37.23
2019-03-01T10:30:45.399Z,36.47
2019-03-01T10:35:49.428Z,36.00
2019-03-01T10:40:53.976Z,36.33
2019-03-01T10:45:58.018Z,36.37
2019-03-01T10:51:02.040Z,36.32
2019-03-01T10:56:06.155Z,37.05
2019-03-01T11:01:10.100Z,36.92
2019-03-01T11:06:14.310Z,37.50
2019-03-01T11:11:18.588Z,37.96
2019-03-01T11:16:22.478Z,37.98
2019-03-01T11:21:26.616Z,37.98
2019-03-01T11:26:30.588Z,37.85
2019-03-01T11:31:34.571Z,37.51
2019-03-01T11:36:38.517Z,36.78
2019-03-01T11:41:42.758Z,35.64
2019-03-01T11:46:46.568Z,34.94
2019-03-01T11:51:50.597Z,33.72
2019-03-01T11:56:54.254Z,32.98
2019-03-01T12:01:57.871Z,32.52
2019-03-01T12:07:01.498Z,31.39
2019-03-01T12:12:05.731Z,30.91
2019-03-01T12:17:09.369Z,30.69
2019-03-01T12:22:17.074Z,30.16
2019-03-01T12:27:18.227Z,30.02
2019-03-01T12:32:21.816Z,29.68
2019-03-01T12:37:25.464Z,29.89
2019-03-01T12:42:29.019Z,29.74
2019-03-01T12:47:32.595Z,29.51
2019-03-01T12:52:36.222Z,28.95
2019-03-01T12:57:40.044Z,28.93
2019-03-01T13:02:43.661Z,28.83
2019-03-01T13:07:47.277Z,28.78
2019-03-01T13:12:50.897Z,29.22
2019-03-01T13:17:54.482Z,29.64
2019-03-01T13:23:01.023Z,30.41
2019-03-01T13:28:03.517Z,30.31
2019-03-01T13:33:07.121Z,30.20
2019-03-01T13:38:10.761Z,29.80
2019-03-01T13:43:14.943Z,29.42
2019-03-01T13:53:55.289Z,31.41
2019-03-01T13:58:59.577Z,32.49
2019-03-01T14:04:04.276Z,29.42
2019-03-01T14:09:11.385Z,30.63
2019-03-01T14:14:14.982Z,32.49
2019-03-01T14:19:18.865Z,32.85
2019-03-01T14:24:22.726Z,33.41
2019-03-01T14:29:25.581Z,46.91
2019-03-01T14:34:29.176Z,58.25
2019-03-01T14:39:32.710Z,57.14
2019-03-01T14:44:36.266Z,59.85
2019-03-01T14:49:39.933Z,60.99
2019-03-01T14:54:45.148Z,59.36
2019-03-01T14:59:51.984Z,60.09
2019-03-01T15:04:55.516Z,59.32
2019-03-01T15:09:59.122Z,60.17
2019-03-01T15:15:02.673Z,59.92
2019-03-01T15:20:09.378Z,59.64
2019-03-01T15:25:13.040Z,60.05
2019-03-01T15:30:17.713Z,60.40
2019-03-01T15:35:21.232Z,61.19
2019-03-01T15:40:27.857Z,61.33
2019-03-01T15:45:30.478Z,62.29
2019-03-01T15:50:34.194Z,61.90
2019-03-01T15:55:37.752Z,61.71
2019-03-01T16:00:41.440Z,61.70
2019-03-01T16:05:45.105Z,61.03
2019-03-01T16:10:48.681Z,61.75
2019-03-01T16:15:52.211Z,61.80
2019-03-01T16:20:55.826Z,62.42
2019-03-01T16:26:00.002Z,61.74
2019-03-01T16:31:03.574Z,62.06
2019-03-01T16:36:08.801Z,62.43
2019-03-01T16:41:12.361Z,63.39
2019-03-01T16:46:15.934Z,62.79
2019-03-01T16:51:19.628Z,62.65
2019-03-01T16:56:23.241Z,63.36
2019-03-01T17:01:29.802Z,64.14
2019-03-01T17:06:32.578Z,63.34
2019-03-01T17:11:37.689Z,63.55
2019-03-01T17:16:41.453Z,63.19
2019-03-01T17:21:50.708Z,63.31
2019-03-01T17:26:50.324Z,63.36
2019-03-01T17:31:53.877Z,63.48
2019-03-01T17:36:57.455Z,63.28
2019-03-01T17:42:01.524Z,63.50
2019-03-01T17:47:06.061Z,63.60
2019-03-01T17:52:10.710Z,63.70
2019-03-01T17:57:14.259Z,63.49
2019-03-01T18:02:17.816Z,63.45
2019-03-01T18:07:23.719Z,62.51
2019-03-01T18:12:26.746Z,63.56
2019-03-01T18:17:33.005Z,62.30
2019-03-01T18:22:35.634Z,61.87
2019-03-01T18:27:39.203Z,61.51
2019-03-01T18:32:45.060Z,62.22
2019-03-01T18:37:51.442Z,61.72
2019-03-01T18:42:53.627Z,60.89
2019-03-01T18:47:57.175Z,60.20
2019-03-01T18:53:03.617Z,59.57
2019-03-01T18:58:07.083Z,58.57
2019-03-01T19:03:10.639Z,58.85
2019-03-01T19:08:14.193Z,58.03
2019-03-01T19:13:20.791Z,56.46
2019-03-01T19:18:23.137Z,55.91
2019-03-01T19:23:29.350Z,56.00
2019-03-01T19:28:32.169Z,55.18
2019-03-01T19:33:37.869Z,55.45
2019-03-01T19:38:41.027Z,55.14
2019-03-01T19:43:45.676Z,55.48
2019-03-01T19:48:50.848Z,54.93
2019-03-01T19:53:57.342Z,56.20
2019-03-01T19:58:59.674Z,57.31
2019-03-01T20:04:03.252Z,57.18
2019-03-01T20:09:08.480Z,56.60
2019-03-01T20:14:12.077Z,57.21
2019-03-01T20:19:17.026Z,57.15
2019-03-01T20:24:21.157Z,57.89
2019-03-01T20:29:24.887Z,58.44
2019-03-01T20:34:28.577Z,58.57
2019-03-01T20:39:33.235Z,59.58
2019-03-01T20:44:36.959Z,58.25
2019-03-01T20:49:40.599Z,58.83
2019-03-01T20:54:44.684Z,58.92
2019-03-01T20:59:50.562Z,58.42
2019-03-01T21:04:53.826Z,58.03
2019-03-01T21:09:57.541Z,59.55
2019-03-01T21:15:01.995Z,57.96
2019-03-01T21:20:11.553Z,57.79
2019-03-01T21:25:19.956Z,57.42
2019-03-01T21:30:33.947Z,57.47
2019-03-01T21:35:37.495Z,57.48
2019-03-01T21:40:41.490Z,57.75
2019-03-01T21:45:45.025Z,58.15
2019-03-01T21:50:48.737Z,57.94
2019-03-01T21:55:52.386Z,58.54
2019-03-01T22:00:55.927Z,58.60
2019-03-01T22:05:59.473Z,58.19
2019-03-01T22:11:03.109Z,58.25
2019-03-01T22:16:06.690Z,57.77
2019-03-01T22:21:10.255Z,58.39
2019-03-01T22:26:15.979Z,58.39
2019-03-01T22:31:19.234Z,58.57
2019-03-01T22:36:22.845Z,58.63
2019-03-01T22:41:26.421Z,58.53
2019-03-01T22:46:29.950Z,58.83
2019-03-01T22:51:33.554Z,58.75
2019-03-01T22:56:37.099Z,58.34
2019-03-01T23:01:42.381Z,58.40
2019-03-01T23:06:47.617Z,58.40
2019-03-01T23:11:51.252Z,58.71
2019-03-01T23:16:55.635Z,59.14
2019-03-01T23:21:59.266Z,58.92
2019-03-01T23:27:03.383Z,59.46
2019-03-01T23:32:06.949Z,59.41
2019-03-01T23:37:10.527Z,59.61
2019-03-01T23:42:14.110Z,59.65
2019-03-01T23:47:17.676Z,59.60
2019-03-01T23:52:22.794Z,58.82
2019-03-01T23:57:26.527Z,59.67
